sensor_id;sensor_type;location;lat;lon;timestamp;temperature;humidity
59973;DHT22;55298;-36.624;-64.282;2022-07-19T00:00:15;8.00;41.80
59973;DHT22;55298;-36.624;-64.282;2022-07-19T00:02:45;8.10;40.80
59973;DHT22;55298;-36.624;-64.282;2022-07-19T00:05:14;8.10;41.20
59973;DHT22;55298;-36.624;-64.282;2022-07-19T00:07:44;8.10;41.00
59973;DHT22;55298;-36.624;-64.282;2022-07-19T00:10:14;7.90;41.40
59973;DHT22;55298;-36.624;-64.282;2022-07-19T00:12:44;7.80;41.30
59973;DHT22;55298;-36.624;-64.282;2022-07-19T00:15:15;7.80;41.40
59973;DHT22;55298;-36.624;-64.282;2022-07-19T00:17:45;7.70;40.00
59973;DHT22;55298;-36.624;-64.282;2022-07-19T00:20:18;7.70;40.40
59973;DHT22;55298;-36.624;-64.282;2022-07-19T00:22:47;7.70;40.40
59973;DHT22;55298;-36.624;-64.282;2022-07-19T00:25:16;7.40;39.20
59973;DHT22;55298;-36.624;-64.282;2022-07-19T00:27:44;7.40;39.70
59973;DHT22;55298;-36.624;-64.282;2022-07-19T00:30:14;7.40;39.70
59973;DHT22;55298;-36.624;-64.282;2022-07-19T00:32:42;7.30;40.20
59973;DHT22;55298;-36.624;-64.282;2022-07-19T00:35:13;7.40;40.60
59973;DHT22;55298;-36.624;-64.282;2022-07-19T00:37:41;7.20;40.60
59973;DHT22;55298;-36.624;-64.282;2022-07-19T00:40:10;7.20;40.30
59973;DHT22;55298;-36.624;-64.282;2022-07-19T00:42:40;7.30;40.40
59973;DHT22;55298;-36.624;-64.282;2022-07-19T00:45:09;7.20;40.90
59973;DHT22;55298;-36.624;-64.282;2022-07-19T00:47:38;7.30;40.90
59973;DHT22;55298;-36.624;-64.282;2022-07-19T00:50:06;7.20;40.10
59973;DHT22;55298;-36.624;-64.282;2022-07-19T00:52:36;7.20;40.60
59973;DHT22;55298;-36.624;-64.282;2022-07-19T00:55:09;7.20;40.00
59973;DHT22;55298;-36.624;-64.282;2022-07-19T00:57:38;7.20;40.50
59973;DHT22;55298;-36.624;-64.282;2022-07-19T01:00:08;7.10;40.30
59973;DHT22;55298;-36.624;-64.282;2022-07-19T01:02:38;7.10;40.20
59973;DHT22;55298;-36.624;-64.282;2022-07-19T01:05:10;7.10;40.40
59973;DHT22;55298;-36.624;-64.282;2022-07-19T01:07:40;7.00;40.90
59973;DHT22;55298;-36.624;-64.282;2022-07-19T01:10:11;7.00;40.80
59973;DHT22;55298;-36.624;-64.282;2022-07-19T01:12:42;7.00;41.30
59973;DHT22;55298;-36.624;-64.282;2022-07-19T01:15:19;7.00;41.20
59973;DHT22;55298;-36.624;-64.282;2022-07-19T01:17:51;6.90;40.50
59973;DHT22;55298;-36.624;-64.282;2022-07-19T01:20:23;6.80;40.50
59973;DHT22;55298;-36.624;-64.282;2022-07-19T01:22:52;6.90;41.00
59973;DHT22;55298;-36.624;-64.282;2022-07-19T01:25:23;6.80;40.90
59973;DHT22;55298;-36.624;-64.282;2022-07-19T01:27:52;6.80;40.80
59973;DHT22;55298;-36.624;-64.282;2022-07-19T01:30:24;6.80;40.90
59973;DHT22;55298;-36.624;-64.282;2022-07-19T01:32:55;6.80;40.80
59973;DHT22;55298;-36.624;-64.282;2022-07-19T01:35:25;6.90;40.70
59973;DHT22;55298;-36.624;-64.282;2022-07-19T01:37:56;7.00;40.50
59973;DHT22;55298;-36.624;-64.282;2022-07-19T01:40:25;6.90;41.50
59973;DHT22;55298;-36.624;-64.282;2022-07-19T01:42:54;7.00;41.20
59973;DHT22;55298;-36.624;-64.282;2022-07-19T01:45:22;6.90;41.80
59973;DHT22;55298;-36.624;-64.282;2022-07-19T01:47:51;6.80;42.10
59973;DHT22;55298;-36.624;-64.282;2022-07-19T01:50:20;6.80;42.20
59973;DHT22;55298;-36.624;-64.282;2022-07-19T01:52:49;6.70;42.10
59973;DHT22;55298;-36.624;-64.282;2022-07-19T01:55:18;6.80;42.10
59973;DHT22;55298;-36.624;-64.282;2022-07-19T01:57:49;6.80;42.50
59973;DHT22;55298;-36.624;-64.282;2022-07-19T02:00:17;6.60;42.60
59973;DHT22;55298;-36.624;-64.282;2022-07-19T02:02:46;6.40;43.40
59973;DHT22;55298;-36.624;-64.282;2022-07-19T02:05:14;6.40;43.90
59973;DHT22;55298;-36.624;-64.282;2022-07-19T02:07:43;6.40;44.10
59973;DHT22;55298;-36.624;-64.282;2022-07-19T02:10:11;6.50;43.70
59973;DHT22;55298;-36.624;-64.282;2022-07-19T02:12:40;6.50;43.60
59973;DHT22;55298;-36.624;-64.282;2022-07-19T02:15:09;6.50;43.70
59973;DHT22;55298;-36.624;-64.282;2022-07-19T02:17:38;6.50;44.30
59973;DHT22;55298;-36.624;-64.282;2022-07-19T02:20:07;6.50;44.30
59973;DHT22;55298;-36.624;-64.282;2022-07-19T02:22:35;6.50;44.10
59973;DHT22;55298;-36.624;-64.282;2022-07-19T02:25:05;6.50;44.00
59973;DHT22;55298;-36.624;-64.282;2022-07-19T02:27:33;6.40;43.50
59973;DHT22;55298;-36.624;-64.282;2022-07-19T02:30:04;6.30;44.00
59973;DHT22;55298;-36.624;-64.282;2022-07-19T02:32:33;6.30;44.20
59973;DHT22;55298;-36.624;-64.282;2022-07-19T02:35:01;6.20;44.40
59973;DHT22;55298;-36.624;-64.282;2022-07-19T02:37:30;6.10;44.50
59973;DHT22;55298;-36.624;-64.282;2022-07-19T02:39:57;6.10;45.00
59973;DHT22;55298;-36.624;-64.282;2022-07-19T02:42:26;6.10;44.80
59973;DHT22;55298;-36.624;-64.282;2022-07-19T02:44:54;6.10;45.00
59973;DHT22;55298;-36.624;-64.282;2022-07-19T02:47:23;6.00;44.80
59973;DHT22;55298;-36.624;-64.282;2022-07-19T02:49:52;6.00;45.30
59973;DHT22;55298;-36.624;-64.282;2022-07-19T02:52:21;5.90;45.20
59973;DHT22;55298;-36.624;-64.282;2022-07-19T02:54:49;5.90;45.70
59973;DHT22;55298;-36.624;-64.282;2022-07-19T02:57:17;5.80;45.30
59973;DHT22;55298;-36.624;-64.282;2022-07-19T02:59:45;5.80;45.50
59973;DHT22;55298;-36.624;-64.282;2022-07-19T03:02:14;5.80;45.50
59973;DHT22;55298;-36.624;-64.282;2022-07-19T03:04:43;6.00;45.30
59973;DHT22;55298;-36.624;-64.282;2022-07-19T03:07:13;5.90;45.80
59973;DHT22;55298;-36.624;-64.282;2022-07-19T03:09:42;5.90;45.40
59973;DHT22;55298;-36.624;-64.282;2022-07-19T03:12:13;5.80;45.60
59973;DHT22;55298;-36.624;-64.282;2022-07-19T03:14:40;5.80;45.50
59973;DHT22;55298;-36.624;-64.282;2022-07-19T03:17:09;5.90;46.00
59973;DHT22;55298;-36.624;-64.282;2022-07-19T03:19:39;6.00;45.90
59973;DHT22;55298;-36.624;-64.282;2022-07-19T03:22:08;5.90;45.30
59973;DHT22;55298;-36.624;-64.282;2022-07-19T03:24:37;6.00;44.80
59973;DHT22;55298;-36.624;-64.282;2022-07-19T03:27:06;5.90;45.10
59973;DHT22;55298;-36.624;-64.282;2022-07-19T03:29:35;5.90;45.60
59973;DHT22;55298;-36.624;-64.282;2022-07-19T03:32:04;5.80;45.60
59973;DHT22;55298;-36.624;-64.282;2022-07-19T03:34:32;5.80;45.80
59973;DHT22;55298;-36.624;-64.282;2022-07-19T03:37:00;5.60;45.50
59973;DHT22;55298;-36.624;-64.282;2022-07-19T03:39:28;5.70;45.40
59973;DHT22;55298;-36.624;-64.282;2022-07-19T03:41:57;5.70;45.90
59973;DHT22;55298;-36.624;-64.282;2022-07-19T03:44:26;5.70;45.60
59973;DHT22;55298;-36.624;-64.282;2022-07-19T03:46:54;5.40;45.30
59973;DHT22;55298;-36.624;-64.282;2022-07-19T03:49:23;5.60;45.60
59973;DHT22;55298;-36.624;-64.282;2022-07-19T03:51:51;5.60;46.00
59973;DHT22;55298;-36.624;-64.282;2022-07-19T03:54:19;5.60;46.20
59973;DHT22;55298;-36.624;-64.282;2022-07-19T03:56:50;5.70;46.20
59973;DHT22;55298;-36.624;-64.282;2022-07-19T03:59:18;5.60;46.40
59973;DHT22;55298;-36.624;-64.282;2022-07-19T04:01:51;5.60;46.90
59973;DHT22;55298;-36.624;-64.282;2022-07-19T04:04:20;5.70;46.60
59973;DHT22;55298;-36.624;-64.282;2022-07-19T04:06:49;5.70;46.90
59973;DHT22;55298;-36.624;-64.282;2022-07-19T04:09:17;5.70;47.20
59973;DHT22;55298;-36.624;-64.282;2022-07-19T04:11:47;5.60;46.80
59973;DHT22;55298;-36.624;-64.282;2022-07-19T04:14:15;5.60;47.00
59973;DHT22;55298;-36.624;-64.282;2022-07-19T04:16:44;5.50;47.20
59973;DHT22;55298;-36.624;-64.282;2022-07-19T04:19:14;5.50;47.10
59973;DHT22;55298;-36.624;-64.282;2022-07-19T04:21:42;5.60;47.30
59973;DHT22;55298;-36.624;-64.282;2022-07-19T04:24:10;5.60;47.80
59973;DHT22;55298;-36.624;-64.282;2022-07-19T04:26:39;5.50;47.80
59973;DHT22;55298;-36.624;-64.282;2022-07-19T04:29:07;5.50;47.90
59973;DHT22;55298;-36.624;-64.282;2022-07-19T04:31:35;5.50;47.70
59973;DHT22;55298;-36.624;-64.282;2022-07-19T04:34:04;5.60;47.40
59973;DHT22;55298;-36.624;-64.282;2022-07-19T04:36:32;5.60;47.30
59973;DHT22;55298;-36.624;-64.282;2022-07-19T04:39:02;5.50;47.60
59973;DHT22;55298;-36.624;-64.282;2022-07-19T04:41:30;5.40;48.00
59973;DHT22;55298;-36.624;-64.282;2022-07-19T04:43:58;5.50;47.50
59973;DHT22;55298;-36.624;-64.282;2022-07-19T04:46:27;5.60;47.40
59973;DHT22;55298;-36.624;-64.282;2022-07-19T04:48:55;5.60;47.30
59973;DHT22;55298;-36.624;-64.282;2022-07-19T04:51:24;5.60;47.30
59973;DHT22;55298;-36.624;-64.282;2022-07-19T04:53:52;5.60;47.30
59973;DHT22;55298;-36.624;-64.282;2022-07-19T04:56:21;5.40;47.70
59973;DHT22;55298;-36.624;-64.282;2022-07-19T04:58:49;5.50;48.30
59973;DHT22;55298;-36.624;-64.282;2022-07-19T05:01:19;5.40;48.40
59973;DHT22;55298;-36.624;-64.282;2022-07-19T05:03:50;5.40;48.70
59973;DHT22;55298;-36.624;-64.282;2022-07-19T05:06:18;5.50;48.80
59973;DHT22;55298;-36.624;-64.282;2022-07-19T05:08:46;5.60;48.90
59973;DHT22;55298;-36.624;-64.282;2022-07-19T05:11:15;5.50;49.40
59973;DHT22;55298;-36.624;-64.282;2022-07-19T05:13:43;5.30;49.80
59973;DHT22;55298;-36.624;-64.282;2022-07-19T05:16:11;5.50;49.40
59973;DHT22;55298;-36.624;-64.282;2022-07-19T05:18:40;5.50;49.10
59973;DHT22;55298;-36.624;-64.282;2022-07-19T05:21:09;5.50;49.60
59973;DHT22;55298;-36.624;-64.282;2022-07-19T05:23:37;5.60;48.90
59973;DHT22;55298;-36.624;-64.282;2022-07-19T05:26:09;5.60;49.30
59973;DHT22;55298;-36.624;-64.282;2022-07-19T05:28:37;5.70;49.40
59973;DHT22;55298;-36.624;-64.282;2022-07-19T05:31:05;5.70;49.70
59973;DHT22;55298;-36.624;-64.282;2022-07-19T05:33:34;5.60;48.80
59973;DHT22;55298;-36.624;-64.282;2022-07-19T05:36:03;5.70;48.90
59973;DHT22;55298;-36.624;-64.282;2022-07-19T05:38:32;5.60;49.00
59973;DHT22;55298;-36.624;-64.282;2022-07-19T05:41:01;5.60;49.20
59973;DHT22;55298;-36.624;-64.282;2022-07-19T05:43:30;5.60;49.70
59973;DHT22;55298;-36.624;-64.282;2022-07-19T05:46:00;5.20;49.90
59973;DHT22;55298;-36.624;-64.282;2022-07-19T05:48:30;5.20;50.60
59973;DHT22;55298;-36.624;-64.282;2022-07-19T05:51:02;5.00;50.00
59973;DHT22;55298;-36.624;-64.282;2022-07-19T05:53:30;4.90;50.50
59973;DHT22;55298;-36.624;-64.282;2022-07-19T05:55:59;4.60;51.10
59973;DHT22;55298;-36.624;-64.282;2022-07-19T05:58:27;4.60;51.50
59973;DHT22;55298;-36.624;-64.282;2022-07-19T06:00:56;4.50;51.90
59973;DHT22;55298;-36.624;-64.282;2022-07-19T06:03:37;4.30;52.20
59973;DHT22;55298;-36.624;-64.282;2022-07-19T06:06:07;4.30;52.50
59973;DHT22;55298;-36.624;-64.282;2022-07-19T06:08:35;4.20;52.90
59973;DHT22;55298;-36.624;-64.282;2022-07-19T06:11:03;4.10;53.10
59973;DHT22;55298;-36.624;-64.282;2022-07-19T06:13:32;4.10;53.60
59973;DHT22;55298;-36.624;-64.282;2022-07-19T06:16:01;4.10;53.90
59973;DHT22;55298;-36.624;-64.282;2022-07-19T06:18:30;4.00;54.30
59973;DHT22;55298;-36.624;-64.282;2022-07-19T06:21:07;4.00;54.30
59973;DHT22;55298;-36.624;-64.282;2022-07-19T06:23:38;4.10;54.00
59973;DHT22;55298;-36.624;-64.282;2022-07-19T06:26:08;4.30;53.70
59973;DHT22;55298;-36.624;-64.282;2022-07-19T06:28:37;4.30;53.60
59973;DHT22;55298;-36.624;-64.282;2022-07-19T06:31:09;4.30;53.90
59973;DHT22;55298;-36.624;-64.282;2022-07-19T06:33:42;3.80;53.50
59973;DHT22;55298;-36.624;-64.282;2022-07-19T06:36:10;4.20;55.40
59973;DHT22;55298;-36.624;-64.282;2022-07-19T06:38:39;4.20;55.90
59973;DHT22;55298;-36.624;-64.282;2022-07-19T06:41:10;4.00;56.60
59973;DHT22;55298;-36.624;-64.282;2022-07-19T06:43:39;3.90;57.40
59973;DHT22;55298;-36.624;-64.282;2022-07-19T06:46:10;4.00;57.50
59973;DHT22;55298;-36.624;-64.282;2022-07-19T06:48:38;3.90;57.70
59973;DHT22;55298;-36.624;-64.282;2022-07-19T06:51:07;3.90;58.50
59973;DHT22;55298;-36.624;-64.282;2022-07-19T06:53:37;3.90;58.40
59973;DHT22;55298;-36.624;-64.282;2022-07-19T06:56:06;3.40;58.30
59973;DHT22;55298;-36.624;-64.282;2022-07-19T06:58:35;3.90;58.50
59973;DHT22;55298;-36.624;-64.282;2022-07-19T07:01:04;3.80;59.10
59973;DHT22;55298;-36.624;-64.282;2022-07-19T07:03:33;3.80;59.60
59973;DHT22;55298;-36.624;-64.282;2022-07-19T07:06:01;3.80;58.60
59973;DHT22;55298;-36.624;-64.282;2022-07-19T07:08:30;4.00;57.70
59973;DHT22;55298;-36.624;-64.282;2022-07-19T07:10:59;4.10;57.20
59973;DHT22;55298;-36.624;-64.282;2022-07-19T07:13:29;4.00;57.20
59973;DHT22;55298;-36.624;-64.282;2022-07-19T07:15:58;3.90;57.30
59973;DHT22;55298;-36.624;-64.282;2022-07-19T07:18:26;3.80;57.50
59973;DHT22;55298;-36.624;-64.282;2022-07-19T07:20:56;3.70;57.50
59973;DHT22;55298;-36.624;-64.282;2022-07-19T07:23:27;3.70;57.60
59973;DHT22;55298;-36.624;-64.282;2022-07-19T07:25:54;3.70;57.90
59973;DHT22;55298;-36.624;-64.282;2022-07-19T07:28:23;3.60;58.20
59973;DHT22;55298;-36.624;-64.282;2022-07-19T07:30:52;3.60;58.60
59973;DHT22;55298;-36.624;-64.282;2022-07-19T07:33:21;3.60;58.80
59973;DHT22;55298;-36.624;-64.282;2022-07-19T07:35:49;3.60;58.60
59973;DHT22;55298;-36.624;-64.282;2022-07-19T07:38:18;3.60;58.70
59973;DHT22;55298;-36.624;-64.282;2022-07-19T07:40:47;3.60;58.60
59973;DHT22;55298;-36.624;-64.282;2022-07-19T07:43:15;3.70;58.70
59973;DHT22;55298;-36.624;-64.282;2022-07-19T07:45:44;3.60;59.10
59973;DHT22;55298;-36.624;-64.282;2022-07-19T07:48:13;3.60;59.60
59973;DHT22;55298;-36.624;-64.282;2022-07-19T07:50:42;4.00;58.90
59973;DHT22;55298;-36.624;-64.282;2022-07-19T07:53:10;3.80;58.50
59973;DHT22;55298;-36.624;-64.282;2022-07-19T07:55:39;3.90;58.30
59973;DHT22;55298;-36.624;-64.282;2022-07-19T07:58:09;3.90;57.70
59973;DHT22;55298;-36.624;-64.282;2022-07-19T08:00:40;4.10;58.20
59973;DHT22;55298;-36.624;-64.282;2022-07-19T08:03:08;4.20;57.20
59973;DHT22;55298;-36.624;-64.282;2022-07-19T08:05:37;4.20;57.10
59973;DHT22;55298;-36.624;-64.282;2022-07-19T08:08:07;4.30;56.90
59973;DHT22;55298;-36.624;-64.282;2022-07-19T08:10:36;4.20;56.90
59973;DHT22;55298;-36.624;-64.282;2022-07-19T08:13:06;4.20;57.30
59973;DHT22;55298;-36.624;-64.282;2022-07-19T08:15:36;4.10;57.80
59973;DHT22;55298;-36.624;-64.282;2022-07-19T08:18:05;4.00;57.70
59973;DHT22;55298;-36.624;-64.282;2022-07-19T08:20:34;4.00;57.90
59973;DHT22;55298;-36.624;-64.282;2022-07-19T08:23:02;4.00;58.40
59973;DHT22;55298;-36.624;-64.282;2022-07-19T08:25:31;4.00;57.90
59973;DHT22;55298;-36.624;-64.282;2022-07-19T08:28:03;3.90;58.10
59973;DHT22;55298;-36.624;-64.282;2022-07-19T08:30:32;3.60;58.20
59973;DHT22;55298;-36.624;-64.282;2022-07-19T08:33:02;3.80;58.70
59973;DHT22;55298;-36.624;-64.282;2022-07-19T08:35:34;3.80;58.90
59973;DHT22;55298;-36.624;-64.282;2022-07-19T08:38:02;3.80;59.30
59973;DHT22;55298;-36.624;-64.282;2022-07-19T08:40:34;3.80;59.00
59973;DHT22;55298;-36.624;-64.282;2022-07-19T08:43:04;3.80;59.50
59973;DHT22;55298;-36.624;-64.282;2022-07-19T08:45:33;3.70;59.50
59973;DHT22;55298;-36.624;-64.282;2022-07-19T08:48:05;3.60;59.50
59973;DHT22;55298;-36.624;-64.282;2022-07-19T08:50:35;3.60;59.70
59973;DHT22;55298;-36.624;-64.282;2022-07-19T08:53:03;3.50;59.70
59973;DHT22;55298;-36.624;-64.282;2022-07-19T08:55:32;3.70;60.10
59973;DHT22;55298;-36.624;-64.282;2022-07-19T08:58:00;3.40;60.20
59973;DHT22;55298;-36.624;-64.282;2022-07-19T09:00:32;3.50;60.50
59973;DHT22;55298;-36.624;-64.282;2022-07-19T09:03:05;3.40;60.60
59973;DHT22;55298;-36.624;-64.282;2022-07-19T09:05:35;3.40;60.70
59973;DHT22;55298;-36.624;-64.282;2022-07-19T09:08:14;3.50;60.60
59973;DHT22;55298;-36.624;-64.282;2022-07-19T09:10:47;3.40;61.30
59973;DHT22;55298;-36.624;-64.282;2022-07-19T09:13:35;3.40;60.70
59973;DHT22;55298;-36.624;-64.282;2022-07-19T09:16:05;3.40;61.40
59973;DHT22;55298;-36.624;-64.282;2022-07-19T09:18:35;3.40;61.20
59973;DHT22;55298;-36.624;-64.282;2022-07-19T09:21:05;3.30;60.80
59973;DHT22;55298;-36.624;-64.282;2022-07-19T09:23:34;3.30;61.40
59973;DHT22;55298;-36.624;-64.282;2022-07-19T09:26:05;3.30;61.00
59973;DHT22;55298;-36.624;-64.282;2022-07-19T09:28:35;3.30;61.20
59973;DHT22;55298;-36.624;-64.282;2022-07-19T09:31:05;3.30;61.80
59973;DHT22;55298;-36.624;-64.282;2022-07-19T09:33:34;3.10;61.70
59973;DHT22;55298;-36.624;-64.282;2022-07-19T09:36:12;3.20;61.90
59973;DHT22;55298;-36.624;-64.282;2022-07-19T09:38:41;3.10;62.60
59973;DHT22;55298;-36.624;-64.282;2022-07-19T09:41:12;3.50;62.30
59973;DHT22;55298;-36.624;-64.282;2022-07-19T09:43:59;3.10;62.30
59973;DHT22;55298;-36.624;-64.282;2022-07-19T09:46:35;3.10;62.90
59973;DHT22;55298;-36.624;-64.282;2022-07-19T09:49:12;3.10;63.20
59973;DHT22;55298;-36.624;-64.282;2022-07-19T09:51:43;3.10;63.60
59973;DHT22;55298;-36.624;-64.282;2022-07-19T09:54:15;3.00;63.90
59973;DHT22;55298;-36.624;-64.282;2022-07-19T09:56:46;2.90;64.50
59973;DHT22;55298;-36.624;-64.282;2022-07-19T09:59:16;3.10;63.50
59973;DHT22;55298;-36.624;-64.282;2022-07-19T10:01:47;3.00;64.20
59973;DHT22;55298;-36.624;-64.282;2022-07-19T10:04:18;3.00;63.90
59973;DHT22;55298;-36.624;-64.282;2022-07-19T10:06:50;3.10;64.10
59973;DHT22;55298;-36.624;-64.282;2022-07-19T10:09:20;3.10;64.20
59973;DHT22;55298;-36.624;-64.282;2022-07-19T10:11:52;3.10;64.50
59973;DHT22;55298;-36.624;-64.282;2022-07-19T10:14:20;3.00;65.00
59973;DHT22;55298;-36.624;-64.282;2022-07-19T10:16:58;2.80;65.30
59973;DHT22;55298;-36.624;-64.282;2022-07-19T10:19:33;1.30;65.20
59973;DHT22;55298;-36.624;-64.282;2022-07-19T10:22:03;2.70;66.70
59973;DHT22;55298;-36.624;-64.282;2022-07-19T10:24:45;2.70;66.90
59973;DHT22;55298;-36.624;-64.282;2022-07-19T10:27:16;2.70;67.30
59973;DHT22;55298;-36.624;-64.282;2022-07-19T10:29:46;2.80;67.60
59973;DHT22;55298;-36.624;-64.282;2022-07-19T10:32:15;2.70;68.00
59973;DHT22;55298;-36.624;-64.282;2022-07-19T10:34:45;2.70;68.30
59973;DHT22;55298;-36.624;-64.282;2022-07-19T10:37:13;2.70;69.00
59973;DHT22;55298;-36.624;-64.282;2022-07-19T10:40:00;2.80;69.10
59973;DHT22;55298;-36.624;-64.282;2022-07-19T10:42:30;2.90;69.20
59973;DHT22;55298;-36.624;-64.282;2022-07-19T10:45:12;2.80;69.80
59973;DHT22;55298;-36.624;-64.282;2022-07-19T10:48:02;2.80;69.80
59973;DHT22;55298;-36.624;-64.282;2022-07-19T10:50:46;2.90;69.90
59973;DHT22;55298;-36.624;-64.282;2022-07-19T10:56:14;2.80;70.10
59973;DHT22;55298;-36.624;-64.282;2022-07-19T10:58:48;2.80;70.60
59973;DHT22;55298;-36.624;-64.282;2022-07-19T11:01:20;2.80;71.00
59973;DHT22;55298;-36.624;-64.282;2022-07-19T11:03:51;2.70;71.30
59973;DHT22;55298;-36.624;-64.282;2022-07-19T11:06:24;2.80;71.50
59973;DHT22;55298;-36.624;-64.282;2022-07-19T11:08:54;2.70;71.40
59973;DHT22;55298;-36.624;-64.282;2022-07-19T11:11:26;2.70;72.10
59973;DHT22;55298;-36.624;-64.282;2022-07-19T11:13:56;2.80;71.10
59973;DHT22;55298;-36.624;-64.282;2022-07-19T11:16:27;2.80;71.80
59973;DHT22;55298;-36.624;-64.282;2022-07-19T11:19:06;2.70;71.80
59973;DHT22;55298;-36.624;-64.282;2022-07-19T11:21:36;2.70;72.50
59973;DHT22;55298;-36.624;-64.282;2022-07-19T11:24:06;2.90;72.80
59973;DHT22;55298;-36.624;-64.282;2022-07-19T11:26:38;2.90;72.60
59973;DHT22;55298;-36.624;-64.282;2022-07-19T11:29:07;2.90;73.30
59973;DHT22;55298;-36.624;-64.282;2022-07-19T11:31:46;3.20;72.50
59973;DHT22;55298;-36.624;-64.282;2022-07-19T11:34:16;3.30;72.70
59973;DHT22;55298;-36.624;-64.282;2022-07-19T11:36:55;3.30;72.50
59973;DHT22;55298;-36.624;-64.282;2022-07-19T11:39:25;3.40;72.30
59973;DHT22;55298;-36.624;-64.282;2022-07-19T11:41:54;3.40;72.10
59973;DHT22;55298;-36.624;-64.282;2022-07-19T11:44:23;3.40;71.80
59973;DHT22;55298;-36.624;-64.282;2022-07-19T11:46:56;3.40;71.50
59973;DHT22;55298;-36.624;-64.282;2022-07-19T11:49:24;3.40;72.10
59973;DHT22;55298;-36.624;-64.282;2022-07-19T11:51:59;3.60;70.80
59973;DHT22;55298;-36.624;-64.282;2022-07-19T11:54:28;3.70;70.30
59973;DHT22;55298;-36.624;-64.282;2022-07-19T11:56:58;3.90;69.40
59973;DHT22;55298;-36.624;-64.282;2022-07-19T11:59:27;3.90;70.00
59973;DHT22;55298;-36.624;-64.282;2022-07-19T12:01:56;4.90;64.80
59973;DHT22;55298;-36.624;-64.282;2022-07-19T12:04:25;5.40;62.10
59973;DHT22;55298;-36.624;-64.282;2022-07-19T12:06:54;5.70;59.80
59973;DHT22;55298;-36.624;-64.282;2022-07-19T12:09:30;5.90;59.00
59973;DHT22;55298;-36.624;-64.282;2022-07-19T12:12:14;5.90;59.30
59973;DHT22;55298;-36.624;-64.282;2022-07-19T12:14:43;6.20;58.50
59973;DHT22;55298;-36.624;-64.282;2022-07-19T12:17:17;6.40;57.70
59973;DHT22;55298;-36.624;-64.282;2022-07-19T12:19:48;6.70;56.50
59973;DHT22;55298;-36.624;-64.282;2022-07-19T12:22:36;6.60;56.30
59973;DHT22;55298;-36.624;-64.282;2022-07-19T12:25:07;5.90;58.10
59973;DHT22;55298;-36.624;-64.282;2022-07-19T12:27:37;5.90;58.60
59973;DHT22;55298;-36.624;-64.282;2022-07-19T12:30:17;6.70;56.00
59973;DHT22;55298;-36.624;-64.282;2022-07-19T12:32:46;7.20;54.50
59973;DHT22;55298;-36.624;-64.282;2022-07-19T12:35:19;7.20;54.30
59973;DHT22;55298;-36.624;-64.282;2022-07-19T12:37:49;7.20;54.70
59973;DHT22;55298;-36.624;-64.282;2022-07-19T12:40:23;7.40;54.20
59973;DHT22;55298;-36.624;-64.282;2022-07-19T12:42:57;7.80;52.80
59973;DHT22;55298;-36.624;-64.282;2022-07-19T12:45:33;7.80;53.30
59973;DHT22;55298;-36.624;-64.282;2022-07-19T12:48:02;7.60;53.90
59973;DHT22;55298;-36.624;-64.282;2022-07-19T12:50:40;7.90;53.50
59973;DHT22;55298;-36.624;-64.282;2022-07-19T12:53:12;7.80;53.80
59973;DHT22;55298;-36.624;-64.282;2022-07-19T12:55:42;8.20;53.10
59973;DHT22;55298;-36.624;-64.282;2022-07-19T12:58:13;8.40;52.60
59973;DHT22;55298;-36.624;-64.282;2022-07-19T13:01:01;8.60;51.90
59973;DHT22;55298;-36.624;-64.282;2022-07-19T13:03:30;8.50;52.30
59973;DHT22;55298;-36.624;-64.282;2022-07-19T13:05:59;8.70;51.60
59973;DHT22;55298;-36.624;-64.282;2022-07-19T13:08:29;8.80;51.40
59973;DHT22;55298;-36.624;-64.282;2022-07-19T13:10:59;8.80;51.60
59973;DHT22;55298;-36.624;-64.282;2022-07-19T13:13:29;9.00;51.50
59973;DHT22;55298;-36.624;-64.282;2022-07-19T13:16:02;9.10;50.90
59973;DHT22;55298;-36.624;-64.282;2022-07-19T13:18:31;9.10;51.30
59973;DHT22;55298;-36.624;-64.282;2022-07-19T13:21:00;9.60;49.80
59973;DHT22;55298;-36.624;-64.282;2022-07-19T13:23:29;9.60;50.20
59973;DHT22;55298;-36.624;-64.282;2022-07-19T13:25:57;9.60;49.60
59973;DHT22;55298;-36.624;-64.282;2022-07-19T13:28:25;9.60;48.50
59973;DHT22;55298;-36.624;-64.282;2022-07-19T13:30:55;9.50;48.70
59973;DHT22;55298;-36.624;-64.282;2022-07-19T13:33:23;9.40;49.10
59973;DHT22;55298;-36.624;-64.282;2022-07-19T13:35:52;9.40;49.10
59973;DHT22;55298;-36.624;-64.282;2022-07-19T13:38:20;9.40;48.70
59973;DHT22;55298;-36.624;-64.282;2022-07-19T13:40:49;9.40;48.70
59973;DHT22;55298;-36.624;-64.282;2022-07-19T13:43:17;9.60;48.50
59973;DHT22;55298;-36.624;-64.282;2022-07-19T13:45:46;9.90;47.60
59973;DHT22;55298;-36.624;-64.282;2022-07-19T13:48:15;10.20;47.40
59973;DHT22;55298;-36.624;-64.282;2022-07-19T13:50:44;10.20;47.20
59973;DHT22;55298;-36.624;-64.282;2022-07-19T13:53:12;10.20;47.50
59973;DHT22;55298;-36.624;-64.282;2022-07-19T13:55:41;10.40;47.40
59973;DHT22;55298;-36.624;-64.282;2022-07-19T13:58:09;10.70;46.90
59973;DHT22;55298;-36.624;-64.282;2022-07-19T14:00:39;10.70;47.40
59973;DHT22;55298;-36.624;-64.282;2022-07-19T14:03:08;10.80;47.00
59973;DHT22;55298;-36.624;-64.282;2022-07-19T14:05:38;11.00;47.00
59973;DHT22;55298;-36.624;-64.282;2022-07-19T14:08:06;11.10;47.50
59973;DHT22;55298;-36.624;-64.282;2022-07-19T14:10:36;11.00;47.20
59973;DHT22;55298;-36.624;-64.282;2022-07-19T14:13:05;11.00;47.70
59973;DHT22;55298;-36.624;-64.282;2022-07-19T14:15:34;11.10;46.90
59973;DHT22;55298;-36.624;-64.282;2022-07-19T14:18:03;11.10;47.40
59973;DHT22;55298;-36.624;-64.282;2022-07-19T14:20:32;11.00;47.30
59973;DHT22;55298;-36.624;-64.282;2022-07-19T14:23:01;10.90;47.80
59973;DHT22;55298;-36.624;-64.282;2022-07-19T14:25:30;11.10;47.90
59973;DHT22;55298;-36.624;-64.282;2022-07-19T14:28:00;11.40;47.30
59973;DHT22;55298;-36.624;-64.282;2022-07-19T14:30:29;11.30;47.70
59973;DHT22;55298;-36.624;-64.282;2022-07-19T14:32:58;11.20;48.10
59973;DHT22;55298;-36.624;-64.282;2022-07-19T14:35:28;10.60;49.50
59973;DHT22;55298;-36.624;-64.282;2022-07-19T14:37:57;10.30;50.80
59973;DHT22;55298;-36.624;-64.282;2022-07-19T14:40:26;10.90;49.70
59973;DHT22;55298;-36.624;-64.282;2022-07-19T14:42:55;11.00;50.10
59973;DHT22;55298;-36.624;-64.282;2022-07-19T14:45:35;11.60;48.80
59973;DHT22;55298;-36.624;-64.282;2022-07-19T14:48:26;12.00;47.20
59973;DHT22;55298;-36.624;-64.282;2022-07-19T14:50:54;12.00;47.20
59973;DHT22;55298;-36.624;-64.282;2022-07-19T14:53:23;12.00;46.90
59973;DHT22;55298;-36.624;-64.282;2022-07-19T14:55:54;12.00;47.10
59973;DHT22;55298;-36.624;-64.282;2022-07-19T14:58:40;12.00;45.80
59973;DHT22;55298;-36.624;-64.282;2022-07-19T15:01:17;12.00;46.30
59973;DHT22;55298;-36.624;-64.282;2022-07-19T15:03:46;11.80;46.70
59973;DHT22;55298;-36.624;-64.282;2022-07-19T15:06:16;11.90;46.40
59973;DHT22;55298;-36.624;-64.282;2022-07-19T15:08:45;11.90;47.50
59973;DHT22;55298;-36.624;-64.282;2022-07-19T15:11:13;11.90;46.90
59973;DHT22;55298;-36.624;-64.282;2022-07-19T15:13:42;12.00;46.50
59973;DHT22;55298;-36.624;-64.282;2022-07-19T15:16:12;12.10;45.80
59973;DHT22;55298;-36.624;-64.282;2022-07-19T15:18:41;12.10;45.20
59973;DHT22;55298;-36.624;-64.282;2022-07-19T15:21:09;12.10;45.30